Time;durP1;ratioP1;P1;durP2;ratioP2;P2;SDS_P1;SDS_P2;PMS_P1;PMS_P2;Temp;Humidity;BMP_temperature;BMP_pressure;BME280_temperature;BME280_humidity;BME280_pressure;Samples;Min_cycle;Max_cycle;Signal;HPM_P1;HPM_P2
2021/06/17 00:02:56;;;;;;;10.60;7.18;;;23.10;99.90;;;;;;12382400;28;20575;-41
2021/06/17 00:08:58;;;;;;;11.30;6.88;;;23.10;99.90;;;;;;12381331;28;20081;-41
2021/06/17 00:15:00;;;;;;;9.52;6.97;;;23.10;99.90;;;;;;12379726;28;20061;-40
2021/06/17 00:21:03;;;;;;;9.68;7.05;;;23.10;99.90;;;;;;12379746;28;20077;-40
2021/06/17 00:27:05;;;;;;;13.05;7.13;;;23.10;99.90;;;;;;12383791;28;20157;-42
2021/06/17 00:33:07;;;;;;;9.38;7.13;;;22.90;99.90;;;;;;12385157;28;20137;-41
2021/06/17 00:39:09;;;;;;;9.90;7.07;;;22.80;99.90;;;;;;12385408;28;20054;-40
2021/06/17 00:45:14;;;;;;;11.38;6.95;;;22.80;99.90;;;;;;12385721;28;20964;-40
2021/06/17 00:51:18;;;;;;;11.32;7.43;;;22.80;99.90;;;;;;12385226;28;20272;-40
2021/06/17 00:57:21;;;;;;;14.80;7.63;;;22.80;99.90;;;;;;12387554;28;20098;-42
2021/06/17 01:03:23;;;;;;;10.27;7.40;;;22.70;99.90;;;;;;12393517;28;20061;-43
2021/06/17 01:09:47;;;;;;;10.48;7.50;;;22.60;99.90;;;;;;12393698;28;20149;-40
2021/06/17 01:16:12;;;;;;;11.13;7.10;;;22.50;99.90;;;;;;12394212;28;20092;-40
2021/06/17 01:22:29;;;;;;;9.90;7.38;;;22.50;99.90;;;;;;12390460;28;20041;-40
2021/06/17 01:28:34;;;;;;;11.98;7.40;;;22.50;99.90;;;;;;12394654;28;20124;-40
2021/06/17 01:34:37;;;;;;;10.05;7.70;;;22.50;99.90;;;;;;12390554;28;20050;-40
2021/06/17 01:40:40;;;;;;;8.77;7.03;;;22.50;99.90;;;;;;12390527;28;20154;-40
2021/06/17 01:46:43;;;;;;;9.43;7.82;;;22.40;99.90;;;;;;12393139;28;20054;-41
2021/06/17 01:52:46;;;;;;;11.75;7.82;;;22.30;99.90;;;;;;12388788;28;20520;-40
2021/06/17 01:58:57;;;;;;;11.30;8.27;;;22.30;99.90;;;;;;12390335;28;20047;-40
2021/06/17 02:04:59;;;;;;;9.80;7.60;;;22.20;99.90;;;;;;12391356;28;20046;-40
2021/06/17 02:11:01;;;;;;;13.13;7.63;;;22.20;99.90;;;;;;12388369;28;20129;-41
2021/06/17 02:17:06;;;;;;;11.18;7.68;;;22.20;99.90;;;;;;12391570;28;20164;-40
2021/06/17 02:23:12;;;;;;;12.82;7.70;;;22.10;99.90;;;;;;12387709;28;20414;-40
2021/06/17 02:29:18;;;;;;;10.48;7.55;;;22.10;99.90;;;;;;12388479;28;20046;-40
2021/06/17 02:35:24;;;;;;;11.93;7.65;;;22.10;99.90;;;;;;12390865;28;20089;-40
2021/06/17 02:41:27;;;;;;;11.00;7.85;;;22.10;99.90;;;;;;12388716;28;20184;-40
2021/06/17 02:47:29;;;;;;;8.98;7.57;;;22.10;99.90;;;;;;12380960;28;20054;-40
2021/06/17 02:53:31;;;;;;;9.85;7.57;;;22.10;99.90;;;;;;12389305;28;20088;-42
2021/06/17 03:00:01;;;;;;;10.05;7.22;;;22.00;99.90;;;;;;12382172;28;20100;-40
2021/06/17 03:06:12;;;;;;;10.75;7.32;;;22.00;99.90;;;;;;12439253;28;20054;-40
2021/06/17 03:12:20;;;;;;;9.13;7.05;;;22.00;99.90;;;;;;12440396;28;20426;-41
2021/06/17 03:18:24;;;;;;;12.02;8.15;;;22.00;99.90;;;;;;12435104;28;20425;-41
2021/06/17 03:24:30;;;;;;;8.70;7.22;;;22.10;99.90;;;;;;12436945;28;20053;-40
2021/06/17 03:30:33;;;;;;;9.93;7.30;;;22.10;99.90;;;;;;12436496;28;20129;-40
2021/06/17 03:36:37;;;;;;;13.15;8.27;;;22.00;99.90;;;;;;12431933;28;20098;-41
2021/06/17 03:42:40;;;;;;;10.68;6.88;;;22.00;99.90;;;;;;12430731;28;20049;-40
2021/06/17 03:48:43;;;;;;;10.80;6.97;;;22.10;99.90;;;;;;12429499;28;20061;-40
2021/06/17 03:54:45;;;;;;;10.30;7.37;;;22.20;99.90;;;;;;12436788;28;20047;-42
2021/06/17 04:00:48;;;;;;;10.38;6.43;;;22.10;99.90;;;;;;12437774;28;20136;-40
2021/06/17 04:06:58;;;;;;;12.40;6.80;;;22.10;99.90;;;;;;12437302;28;20100;-41
2021/06/17 04:13:01;;;;;;;10.07;6.82;;;22.20;99.90;;;;;;12435601;28;20176;-40
2021/06/17 04:19:03;;;;;;;7.67;6.23;;;22.20;99.90;;;;;;12434809;28;20648;-40
2021/06/17 04:25:08;;;;;;;10.40;7.85;;;22.20;99.90;;;;;;12427278;28;20046;-41
2021/06/17 04:31:13;;;;;;;12.68;8.93;;;22.40;99.90;;;;;;12429420;28;20052;-40
2021/06/17 04:37:26;;;;;;;8.45;7.63;;;22.30;99.90;;;;;;12438773;28;20363;-41
2021/06/17 04:43:32;;;;;;;8.90;7.93;;;22.20;99.90;;;;;;12439288;28;20053;-41
2021/06/17 04:49:35;;;;;;;11.55;7.80;;;21.90;99.90;;;;;;12439409;28;20056;-41
2021/06/17 04:55:49;;;;;;;11.43;7.45;;;21.70;99.90;;;;;;12442113;28;20114;-40
2021/06/17 05:01:52;;;;;;;11.82;7.13;;;21.80;99.90;;;;;;12435368;28;20232;-39
2021/06/17 05:14:15;;;;;;;8.75;6.88;;;22.30;99.90;;;;;;12436426;28;20152;-39
2021/06/17 05:20:17;;;;;;;8.98;6.22;;;22.40;99.90;;;;;;12432113;28;20046;-41
2021/06/17 05:26:20;;;;;;;7.50;6.47;;;22.50;99.90;;;;;;12433101;28;20112;-41
2021/06/17 05:32:24;;;;;;;9.85;6.13;;;22.70;99.90;;;;;;12417494;28;20056;-40
2021/06/17 05:38:29;;;;;;;13.18;6.10;;;22.70;99.90;;;;;;12387953;28;20057;-40
2021/06/17 05:44:30;;;;;;;7.18;5.63;;;22.80;99.90;;;;;;12391376;28;20148;-41
2021/06/17 05:50:32;;;;;;;13.15;5.93;;;23.00;99.90;;;;;;12384360;28;20053;-41
2021/06/17 05:56:34;;;;;;;9.90;5.75;;;23.20;99.90;;;;;;12389932;28;20123;-39
2021/06/17 06:02:37;;;;;;;10.15;6.15;;;23.30;99.90;;;;;;12381685;28;20558;-40
2021/06/17 06:08:38;;;;;;;12.25;5.63;;;23.40;99.90;;;;;;12391197;28;20062;-40
2021/06/17 06:14:40;;;;;;;8.73;5.72;;;23.50;99.90;;;;;;12388547;28;20057;-41
2021/06/17 06:20:46;;;;;;;10.35;5.65;;;23.70;99.90;;;;;;12389267;28;20058;-41
2021/06/17 06:26:48;;;;;;;10.30;5.55;;;23.80;99.90;;;;;;12390645;28;20555;-40
2021/06/17 06:32:50;;;;;;;7.72;5.68;;;23.90;99.90;;;;;;12391276;28;20050;-40
2021/06/17 06:38:52;;;;;;;7.22;5.57;;;24.00;99.90;;;;;;12390355;28;20364;-40
2021/06/17 06:44:54;;;;;;;10.73;6.10;;;24.20;99.90;;;;;;12387536;28;20068;-41
2021/06/17 06:50:56;;;;;;;9.73;5.68;;;24.30;99.90;;;;;;12384850;28;20280;-41
2021/06/17 06:56:58;;;;;;;8.73;5.40;;;24.40;99.90;;;;;;12386552;28;20475;-40
2021/06/17 07:03:00;;;;;;;11.20;5.88;;;24.60;99.90;;;;;;12388678;28;20486;-40
2021/06/17 07:09:02;;;;;;;8.85;5.65;;;24.70;99.90;;;;;;12386134;28;20496;-40
2021/06/17 07:15:04;;;;;;;7.47;5.10;;;24.90;99.90;;;;;;12385774;28;20103;-40
2021/06/17 07:21:07;;;;;;;6.47;5.30;;;25.00;99.90;;;;;;12381265;28;20049;-40
2021/06/17 07:27:09;;;;;;;7.20;5.27;;;25.10;99.90;;;;;;12385195;28;20054;-40
2021/06/17 07:33:11;;;;;;;7.32;5.65;;;25.30;99.90;;;;;;12384484;28;20105;-40
2021/06/17 07:39:13;;;;;;;8.90;5.47;;;25.40;99.90;;;;;;12386194;28;20058;-41
2021/06/17 07:45:15;;;;;;;11.38;5.38;;;25.60;99.90;;;;;;12383050;28;20452;-40
2021/06/17 07:51:18;;;;;;;6.57;5.32;;;25.70;99.90;;;;;;12384435;28;20046;-40
2021/06/17 07:57:20;;;;;;;7.95;4.90;;;25.80;99.90;;;;;;12381313;28;20062;-41
2021/06/17 08:03:21;;;;;;;8.32;5.10;;;26.00;99.90;;;;;;12382003;28;20150;-40
2021/06/17 08:09:23;;;;;;;9.40;4.70;;;26.20;99.90;;;;;;12393176;28;20137;-40
2021/06/17 08:15:25;;;;;;;9.55;4.43;;;26.40;99.90;;;;;;12394580;28;20046;-40
2021/06/17 08:21:27;;;;;;;9.63;5.30;;;26.60;99.90;;;;;;12393051;28;20529;-40
2021/06/17 08:27:29;;;;;;;8.50;4.47;;;26.70;99.90;;;;;;12388365;28;20049;-40
2021/06/17 08:33:33;;;;;;;5.85;4.15;;;26.90;99.90;;;;;;12391186;28;20583;-41
2021/06/17 08:39:36;;;;;;;6.35;4.30;;;27.00;99.90;;;;;;12392930;28;20490;-41
2021/06/17 08:45:38;;;;;;;9.38;3.90;;;27.30;99.90;;;;;;12390281;28;20161;-40
2021/06/17 08:51:40;;;;;;;8.07;3.90;;;27.50;99.90;;;;;;12390545;28;20054;-41
2021/06/17 08:57:46;;;;;;;8.43;4.15;;;27.60;99.90;;;;;;12393269;28;20526;-39
2021/06/17 09:03:54;;;;;;;7.50;4.20;;;27.80;99.90;;;;;;12386294;28;20061;-40
2021/06/17 09:09:56;;;;;;;5.43;3.85;;;28.00;99.90;;;;;;12391456;28;20058;-40
2021/06/17 09:15:58;;;;;;;8.23;4.30;;;28.10;99.90;;;;;;12392002;28;20154;-41
2021/06/17 09:22:00;;;;;;;7.32;4.22;;;28.20;99.90;;;;;;12394242;28;20473;-41
2021/06/17 09:28:03;;;;;;;7.20;4.75;;;28.40;99.90;;;;;;12394178;28;20054;-40
2021/06/17 09:34:06;;;;;;;5.35;4.40;;;28.70;99.90;;;;;;12390029;28;20042;-40
2021/06/17 09:40:24;;;;;;;6.60;4.07;;;28.80;99.90;;;;;;12398139;28;20192;-42
2021/06/17 09:46:26;;;;;;;6.63;4.10;;;28.80;99.90;;;;;;12392371;28;20054;-41
2021/06/17 09:52:39;;;;;;;7.20;4.35;;;28.80;99.90;;;;;;12391695;28;20046;-40
2021/06/17 09:58:45;;;;;;;7.07;4.70;;;28.90;99.90;;;;;;12389856;28;20050;-41
2021/06/17 10:04:47;;;;;;;9.93;4.45;;;29.00;99.90;;;;;;12392258;28;20904;-41
2021/06/17 10:10:50;;;;;;;5.70;3.90;;;29.10;99.90;;;;;;12389077;28;20459;-41
2021/06/17 10:16:52;;;;;;;7.47;4.10;;;29.50;99.90;;;;;;12390666;28;20058;-40
2021/06/17 10:22:55;;;;;;;5.15;4.13;;;29.70;99.90;;;;;;12391019;28;20062;-40
2021/06/17 10:28:58;;;;;;;8.98;4.10;;;29.90;99.90;;;;;;12387259;28;20592;-41
2021/06/17 10:34:59;;;;;;;6.38;3.33;;;29.90;99.90;;;;;;12390875;28;20095;-41
2021/06/17 10:41:01;;;;;;;9.15;3.60;;;30.10;99.90;;;;;;12390912;28;20107;-42
2021/06/17 10:47:04;;;;;;;8.35;3.55;;;30.20;99.90;;;;;;12386524;28;20149;-40
2021/06/17 10:53:53;;;;;;;11.05;3.60;;;30.30;99.90;;;;;;12389522;28;20409;-41
2021/06/17 10:59:55;;;;;;;6.95;3.53;;;30.40;99.90;;;;;;12352454;28;20663;-40
2021/06/17 11:05:57;;;;;;;5.07;3.08;;;30.50;99.90;;;;;;12338676;28;20047;-41
2021/06/17 11:12:00;;;;;;;4.78;3.15;;;30.80;99.90;;;;;;12342152;28;21008;-41
2021/06/17 11:18:03;;;;;;;5.32;3.00;;;30.80;99.90;;;;;;12343169;28;20054;-40
2021/06/17 11:24:11;;;;;;;6.72;3.03;;;;;;;;;;12338034;28;20042;-40
2021/06/17 11:30:13;;;;;;;6.22;3.30;;;31.30;99.90;;;;;;12337395;28;20046;-40
2021/06/17 11:36:18;;;;;;;8.13;3.28;;;31.20;99.90;;;;;;12338600;28;20058;-40
2021/06/17 11:42:20;;;;;;;8.60;3.30;;;31.30;99.90;;;;;;12337151;28;20231;-41
2021/06/17 11:48:23;;;;;;;11.77;3.50;;;31.50;99.90;;;;;;12333380;28;20058;-42
2021/06/17 11:54:26;;;;;;;5.85;3.05;;;31.70;99.90;;;;;;12338172;28;20531;-41
2021/06/17 12:00:32;;;;;;;10.23;3.05;;;31.50;99.90;;;;;;12380006;28;20079;-41
2021/06/17 12:06:36;;;;;;;6.90;3.20;;;31.80;99.90;;;;;;12378737;28;20106;-41
2021/06/17 12:12:43;;;;;;;4.40;3.10;;;31.70;99.90;;;;;;12385215;28;20046;-41
2021/06/17 12:18:45;;;;;;;5.85;2.50;;;31.80;99.90;;;;;;12380337;28;20053;-40
2021/06/17 12:24:47;;;;;;;8.05;2.80;;;31.80;99.90;;;;;;12379772;28;20046;-42
2021/06/17 12:30:50;;;;;;;6.10;2.78;;;31.90;99.90;;;;;;12382553;28;20442;-40
2021/06/17 12:37:04;;;;;;;4.95;2.65;;;31.90;99.90;;;;;;12379267;28;20074;-41
2021/06/17 12:43:07;;;;;;;5.35;2.50;;;32.00;99.90;;;;;;12375877;28;20053;-41
2021/06/17 12:52:02;;;;;;;13.07;3.17;;;32.30;99.90;;;;;;12378334;28;20136;-40
2021/06/17 12:55:38;;;;;;;4.93;2.53;;;32.10;99.90;;;;;;12389523;28;20569;-45
2021/06/17 13:01:48;;;;;;;7.55;2.70;;;32.10;99.90;;;;;;12387985;28;20525;-41
2021/06/17 13:08:10;;;;;;;7.93;2.72;;;32.40;99.90;;;;;;12387041;28;20137;-40
2021/06/17 13:14:12;;;;;;;6.40;2.80;;;32.30;99.90;;;;;;12390371;28;21317;-41
2021/06/17 13:20:18;;;;;;;;;;;32.30;99.90;;;;;;12390515;28;20062;-42
2021/06/17 13:26:22;;;;;;;10.93;2.72;;;32.40;99.90;;;;;;12390753;28;20032;-41
2021/06/17 13:32:25;;;;;;;5.82;2.70;;;32.50;99.90;;;;;;12390135;28;20518;-40
2021/06/17 13:38:27;;;;;;;6.32;2.63;;;32.50;99.90;;;;;;12390815;28;20589;-41
2021/06/17 13:44:31;;;;;;;3.92;2.70;;;32.60;99.90;;;;;;12424975;28;20157;-41
2021/06/17 13:50:33;;;;;;;6.68;2.95;;;32.60;99.90;;;;;;12436204;28;20479;-40
2021/06/17 13:56:35;;;;;;;5.55;2.92;;;32.40;99.90;;;;;;12389910;28;20058;-41
2021/06/17 14:02:37;;;;;;;;;;;32.60;99.90;;;;;;12383864;28;20460;-43
2021/06/17 14:08:39;;;;;;;8.60;3.15;;;32.70;99.90;;;;;;12388025;28;19929;-40
2021/06/17 14:14:40;;;;;;;4.28;2.85;;;32.80;99.90;;;;;;12388864;28;20133;-41
2021/06/17 14:20:42;;;;;;;;;;;32.70;99.90;;;;;;12389595;28;20089;-41
2021/06/17 14:26:46;;;;;;;6.93;2.95;;;32.70;99.90;;;;;;12386231;28;20452;-41
2021/06/17 14:32:49;;;;;;;3.95;2.97;;;32.90;99.90;;;;;;12389977;28;20058;-40
2021/06/17 14:38:51;;;;;;;7.82;3.25;;;32.90;99.90;;;;;;12384081;28;20054;-40
2021/06/17 14:44:52;;;;;;;;;;;33.10;99.90;;;;;;12388130;28;20050;-41
2021/06/17 14:50:54;;;;;;;5.43;2.90;;;32.80;99.90;;;;;;12385631;28;19930;-40
2021/06/17 14:56:56;;;;;;;6.35;3.15;;;32.80;99.90;;;;;;12386539;28;20081;-41
2021/06/17 15:02:59;;;;;;;;;;;32.70;99.90;;;;;;12373272;28;20129;-40
2021/06/17 15:09:01;;;;;;;5.78;2.95;;;32.60;99.90;;;;;;12388534;28;20013;-40
2021/06/17 15:15:04;;;;;;;5.32;3.00;;;32.70;99.90;;;;;;12377118;28;20148;-41
2021/06/17 15:21:06;;;;;;;5.50;2.97;;;32.50;99.90;;;;;;12384914;28;20050;-41
2021/06/17 15:27:09;;;;;;;;;;;32.40;99.90;;;;;;12383583;28;20542;-40
2021/06/17 15:33:10;;;;;;;7.80;2.92;;;32.40;99.90;;;;;;12386453;28;19971;-40
2021/06/17 15:39:12;;;;;;;;;;;32.20;99.90;;;;;;12390249;28;20246;-40
2021/06/17 15:45:14;;;;;;;3.80;2.83;;;32.40;99.90;;;;;;12377664;28;19975;-40
2021/06/17 15:51:17;;;;;;;7.90;3.08;;;32.40;99.90;;;;;;12381347;28;20124;-41
2021/06/17 15:57:19;;;;;;;5.32;2.90;;;32.50;99.90;;;;;;12383054;28;20078;-41
2021/06/17 16:03:22;;;;;;;8.85;2.70;;;32.50;99.90;;;;;;12388434;28;20396;-43
2021/06/17 16:09:27;;;;;;;3.70;2.30;;;32.40;99.90;;;;;;12384640;28;20049;-41
2021/06/17 16:15:29;;;;;;;4.78;2.30;;;32.40;99.90;;;;;;12387304;28;20449;-42
2021/06/17 16:21:31;;;;;;;5.68;2.85;;;32.40;99.90;;;;;;12386858;28;20053;-41
2021/06/17 16:27:33;;;;;;;6.25;2.72;;;32.30;99.90;;;;;;12391670;28;20053;-41
2021/06/17 16:33:35;;;;;;;6.82;2.60;;;32.20;99.90;;;;;;12396460;28;20050;-40
2021/06/17 16:39:37;;;;;;;7.82;2.70;;;32.00;99.90;;;;;;12392399;28;20058;-40
2021/06/17 16:45:39;;;;;;;7.70;2.50;;;32.00;99.90;;;;;;12389169;28;20129;-41
2021/06/17 16:51:41;;;;;;;5.75;2.28;;;32.00;99.90;;;;;;12391906;28;20062;-43
2021/06/17 16:57:44;;;;;;;5.35;2.60;;;31.90;99.90;;;;;;12385948;28;20104;-41
2021/06/17 17:03:46;;;;;;;5.07;2.63;;;31.90;99.90;;;;;;12388230;28;20137;-41
2021/06/17 17:09:51;;;;;;;;;;;31.90;99.90;;;;;;12391359;28;20057;-41
2021/06/17 17:15:53;;;;;;;4.03;2.45;;;31.70;99.90;;;;;;12392913;28;20377;-41
2021/06/17 17:21:55;;;;;;;8.15;2.35;;;32.10;99.90;;;;;;12391159;28;20530;-41
2021/06/17 17:27:57;;;;;;;;;;;32.20;99.90;;;;;;12388174;28;20050;-41
2021/06/17 17:33:59;;;;;;;4.65;2.50;;;31.90;99.90;;;;;;12392929;28;20346;-40
2021/06/17 17:40:01;;;;;;;4.30;2.60;;;32.20;99.90;;;;;;12386549;28;20051;-42
2021/06/17 17:46:03;;;;;;;4.90;2.20;;;32.20;99.90;;;;;;12389827;28;20433;-41
2021/06/17 17:52:06;;;;;;;4.63;2.42;;;32.00;99.90;;;;;;12383060;28;20244;-42
2021/06/17 17:58:09;;;;;;;4.93;2.47;;;31.70;99.90;;;;;;12388397;28;20069;-40
2021/06/17 18:04:10;;;;;;;5.05;2.75;;;31.30;99.90;;;;;;12385415;28;20548;-41
2021/06/17 18:10:15;;;;;;;8.23;2.80;;;31.00;99.90;;;;;;12388798;28;20444;-41
2021/06/17 18:16:58;;;;;;;4.32;2.45;;;30.70;99.90;;;;;;12386571;28;20050;-41
2021/06/17 18:23:00;;;;;;;8.25;2.58;;;30.30;99.90;;;;;;12383029;28;20100;-41
2021/06/17 18:29:02;;;;;;;3.63;2.67;;;30.10;99.90;;;;;;12381592;28;20045;-41
2021/06/17 18:35:08;;;;;;;4.47;2.58;;;29.80;99.90;;;;;;12381292;28;20127;-40
2021/06/17 18:41:10;;;;;;;6.50;2.55;;;29.50;99.90;;;;;;12386883;28;20046;-41
2021/06/17 18:47:13;;;;;;;5.03;2.75;;;29.30;99.90;;;;;;12384934;28;20139;-40
2021/06/17 18:53:15;;;;;;;4.40;2.50;;;29.10;99.90;;;;;;12382640;28;20464;-40
2021/06/17 18:59:17;;;;;;;4.78;2.80;;;28.90;99.90;;;;;;12382119;28;20545;-42
2021/06/17 19:05:19;;;;;;;5.70;2.80;;;28.80;99.90;;;;;;12381798;28;20050;-41
2021/06/17 19:11:23;;;;;;;4.83;2.80;;;28.60;99.90;;;;;;12383619;28;20058;-40
2021/06/17 19:17:25;;;;;;;4.35;2.20;;;28.50;99.90;;;;;;12383526;28;20377;-41
2021/06/17 19:23:28;;;;;;;6.57;2.60;;;28.30;99.90;;;;;;12378980;28;20497;-41
2021/06/17 19:29:30;;;;;;;6.07;2.55;;;28.20;99.90;;;;;;12384850;28;20118;-40
2021/06/17 19:35:33;;;;;;;8.23;3.00;;;28.10;99.90;;;;;;12382399;28;20058;-42
2021/06/17 19:41:35;;;;;;;6.28;2.80;;;27.90;99.90;;;;;;12392999;28;20053;-41
2021/06/17 19:47:37;;;;;;;5.27;2.80;;;27.70;99.90;;;;;;12425556;28;20046;-41
2021/06/17 19:53:41;;;;;;;5.83;3.00;;;27.60;99.90;;;;;;12400979;28;20050;-40
2021/06/17 19:59:43;;;;;;;5.80;3.05;;;27.60;99.90;;;;;;12381239;28;20108;-41
2021/06/17 20:05:45;;;;;;;4.97;3.43;;;27.50;99.90;;;;;;12388997;28;20101;-42
2021/06/17 20:11:47;;;;;;;6.53;3.10;;;27.40;99.90;;;;;;12396277;28;20046;-41
2021/06/17 20:17:49;;;;;;;6.70;3.13;;;27.30;99.90;;;;;;12396588;28;20053;-40
2021/06/17 20:23:51;;;;;;;5.17;3.30;;;27.20;99.90;;;;;;12391490;28;20420;-40
2021/06/17 20:29:54;;;;;;;5.35;3.13;;;27.20;99.90;;;;;;12394996;28;20058;-41
2021/06/17 20:35:56;;;;;;;10.40;3.13;;;27.20;99.90;;;;;;12394276;28;20048;-40
2021/06/17 20:41:58;;;;;;;7.10;3.28;;;27.20;99.90;;;;;;12390696;28;20103;-40
2021/06/17 20:48:00;;;;;;;7.25;3.30;;;27.00;99.90;;;;;;12393328;28;20165;-40
2021/06/17 20:54:02;;;;;;;6.40;3.15;;;26.90;99.90;;;;;;12392214;28;20502;-40
2021/06/17 21:00:05;;;;;;;5.20;2.97;;;26.80;99.90;;;;;;12385485;28;20714;-40
2021/06/17 21:06:08;;;;;;;4.63;3.00;;;26.70;99.90;;;;;;12394181;28;20050;-41
2021/06/17 21:12:09;;;;;;;4.77;3.17;;;26.60;99.90;;;;;;12391815;28;20047;-41
2021/06/17 21:18:12;;;;;;;7.97;3.38;;;26.50;99.90;;;;;;12395378;28;20100;-40
2021/06/17 21:24:13;;;;;;;6.50;3.35;;;26.50;99.90;;;;;;12387455;28;20511;-41
2021/06/17 21:30:16;;;;;;;4.78;3.30;;;27.00;99.90;;;;;;12392487;28;20047;-41
2021/06/17 21:36:19;;;;;;;;;;;26.90;99.90;;;;;;12390980;28;20107;-40
2021/06/17 21:42:20;;;;;;;7.65;3.90;;;26.60;99.90;;;;;;12389269;28;19929;-40
2021/06/17 21:48:22;;;;;;;6.40;3.78;;;26.60;99.90;;;;;;12386651;28;20054;-40
2021/06/17 21:54:26;;;;;;;6.23;3.67;;;26.20;99.90;;;;;;12385936;28;20092;-41
2021/06/17 22:00:29;;;;;;;5.88;3.80;;;25.70;99.90;;;;;;12389492;28;20103;-40
2021/06/17 22:06:30;;;;;;;;;;;25.50;99.90;;;;;;12391603;28;20107;-41
2021/06/17 22:12:32;;;;;;;6.25;3.90;;;25.60;99.90;;;;;;12392448;28;19929;-41
2021/06/17 22:18:34;;;;;;;8.23;4.10;;;25.80;99.90;;;;;;12389196;28;20156;-40
2021/06/17 22:24:37;;;;;;;7.80;4.20;;;26.00;99.90;;;;;;12388568;28;20058;-40
2021/06/17 22:30:39;;;;;;;6.85;4.60;;;26.10;99.90;;;;;;12387018;28;20042;-40
2021/06/17 22:36:41;;;;;;;9.32;4.50;;;25.80;99.90;;;;;;12387066;28;20161;-40
2021/06/17 22:42:43;;;;;;;10.00;5.10;;;25.60;99.90;;;;;;12388572;28;20053;-42
2021/06/17 22:48:45;;;;;;;10.75;5.60;;;25.50;99.90;;;;;;12387642;28;20050;-40
2021/06/17 22:54:47;;;;;;;10.73;5.38;;;25.20;99.90;;;;;;12387796;28;20486;-39
2021/06/17 23:00:49;;;;;;;10.30;6.20;;;25.10;99.90;;;;;;12386399;28;20503;-41
2021/06/17 23:06:52;;;;;;;8.50;5.75;;;24.70;99.90;;;;;;12389885;28;20081;-39
2021/06/17 23:12:54;;;;;;;13.00;6.18;;;24.60;99.90;;;;;;12383113;28;20089;-40
2021/06/17 23:18:56;;;;;;;12.32;5.80;;;24.50;99.90;;;;;;12390680;28;20439;-40
2021/06/17 23:24:58;;;;;;;9.23;5.80;;;24.30;99.90;;;;;;12382359;28;20399;-39
2021/06/17 23:31:00;;;;;;;7.40;6.05;;;24.30;99.90;;;;;;12385817;28;20046;-39
2021/06/17 23:37:02;;;;;;;13.48;6.97;;;24.20;99.90;;;;;;12376978;28;20045;-39
2021/06/17 23:43:04;;;;;;;11.20;6.22;;;24.00;99.90;;;;;;12383451;28;20045;-39
2021/06/17 23:49:06;;;;;;;8.45;5.80;;;24.00;99.90;;;;;;12385329;28;20046;-42
2021/06/17 23:55:09;;;;;;;9.52;5.72;;;23.90;99.90;;;;;;12387969;28;20061;-41
